Macuru Arrow — C6YH3 — position and weather

sailwx.info

Track history (hours):
 
Tides and Currents Weather Stations Pressure Air Temp Water Temp Dewpoint Dewpoint Depression Visibility Wind Speed Wind Dir Waves Ship Positions

Macuru Arrow

Last reported at 2015-Sep-04 21:15 UTC. Time now 2015-Sep-05 07:49 UTC.
Position N 27°26' E 122°14'.

Length 225 m; draft 10.3 m.

Type: Cargo ship. MMSI: 311032500.

Date/timePositionNaut miles runAvg speedWind from/ knotsBaromVisibWave heightAir tempDewpointWater temp
2015-Sep-04 21:15N 27°26' E 122°14'1013.9
2015-Sep-04 20:33N 27°17' E 122°10'1413.6
2015-Sep-04 19:33N 27°05' E 122°05'1413.7
2015-Sep-04 18:33N 26°53' E 121°56'1613.8
2015-Sep-04 17:22N 26°40' E 121°46'1113.9
2015-Sep-04 16:33N 26°31' E 121°38'1414.0
2015-Sep-04 15:33N 26°20' E 121°28'1513.7
2015-Sep-04 14:26N 26°07' E 121°18'1213.7
2015-Sep-04 13:31N 25°57' E 121°10'  
Track history (hours):
 
Tides and Currents Weather Stations Pressure Air Temp Water Temp Dewpoint Dewpoint Depression Visibility Wind Speed Wind Dir Waves Ship Positions

Macuru Arrow

Last reported at 2015-Sep-04 21:15 UTC. Time now 2015-Sep-05 07:49 UTC.
Position N 27°26' E 122°14'.

Length 225 m; draft 10.3 m.

Type: Cargo ship. MMSI: 311032500.

Date/timePositionNaut miles runAvg speedWind from/ knotsBaromVisibWave heightAir tempDewpointWater temp
2015-Sep-04 21:15N 27°26' E 122°14'1013.9
2015-Sep-04 20:33N 27°17' E 122°10'1413.6
2015-Sep-04 19:33N 27°05' E 122°05'1413.7
2015-Sep-04 18:33N 26°53' E 121°56'1613.8
2015-Sep-04 17:22N 26°40' E 121°46'1113.9
2015-Sep-04 16:33N 26°31' E 121°38'1414.0
2015-Sep-04 15:33N 26°20' E 121°28'1513.7
2015-Sep-04 14:26N 26°07' E 121°18'1213.7
2015-Sep-04 13:31N 25°57' E 121°10'  

Dump ship's entire track history